sensor_id;sensor_type;location;lat;lon;timestamp;pressure;altitude;pressure_sealevel;temperature;humidity
67980;BME280;54760;47.490;19.030;2023-05-12T00:02:21;100167.44;;;13.61;74.61
67980;BME280;54760;47.490;19.030;2023-05-12T00:04:47;100164.03;;;13.57;75.96
67980;BME280;54760;47.490;19.030;2023-05-12T00:07:12;100160.62;;;13.53;76.92
67980;BME280;54760;47.490;19.030;2023-05-12T00:09:37;100162.50;;;13.27;77.82
67980;BME280;54760;47.490;19.030;2023-05-12T00:12:03;100160.00;;;13.33;78.28
67980;BME280;54760;47.490;19.030;2023-05-12T00:14:29;100159.25;;;13.45;77.58
67980;BME280;54760;47.490;19.030;2023-05-12T00:16:54;100159.31;;;13.70;75.67
67980;BME280;54760;47.490;19.030;2023-05-12T00:19:19;100160.97;;;13.80;75.63
67980;BME280;54760;47.490;19.030;2023-05-12T00:21:46;100159.13;;;13.77;75.56
67980;BME280;54760;47.490;19.030;2023-05-12T00:24:11;100151.72;;;13.62;75.40
67980;BME280;54760;47.490;19.030;2023-05-12T00:26:36;100165.13;;;13.60;75.78
67980;BME280;54760;47.490;19.030;2023-05-12T00:29:02;100153.09;;;13.41;76.73
67980;BME280;54760;47.490;19.030;2023-05-12T00:31:30;100153.50;;;13.27;76.67
67980;BME280;54760;47.490;19.030;2023-05-12T00:33:56;100149.00;;;13.33;77.48
67980;BME280;54760;47.490;19.030;2023-05-12T00:36:21;100155.13;;;13.53;76.11
67980;BME280;54760;47.490;19.030;2023-05-12T00:38:47;100143.59;;;13.71;76.11
67980;BME280;54760;47.490;19.030;2023-05-12T00:41:12;100148.47;;;13.38;76.45
67980;BME280;54760;47.490;19.030;2023-05-12T00:43:38;100141.91;;;13.48;76.38
67980;BME280;54760;47.490;19.030;2023-05-12T00:46:04;100141.44;;;13.37;77.41
67980;BME280;54760;47.490;19.030;2023-05-12T00:48:31;100146.63;;;13.48;76.85
67980;BME280;54760;47.490;19.030;2023-05-12T00:50:57;100139.28;;;13.57;76.12
67980;BME280;54760;47.490;19.030;2023-05-12T00:53:23;100145.19;;;13.43;75.97
67980;BME280;54760;47.490;19.030;2023-05-12T00:55:49;100145.84;;;13.47;76.84
67980;BME280;54760;47.490;19.030;2023-05-12T00:58:15;100143.03;;;13.63;76.08
67980;BME280;54760;47.490;19.030;2023-05-12T01:00:40;100146.88;;;13.66;76.92
67980;BME280;54760;47.490;19.030;2023-05-12T01:03:06;100136.50;;;13.16;77.87
67980;BME280;54760;47.490;19.030;2023-05-12T01:05:51;100142.56;;;13.52;76.03
67980;BME280;54760;47.490;19.030;2023-05-12T01:08:20;100138.34;;;13.35;76.81
67980;BME280;54760;47.490;19.030;2023-05-12T01:10:47;100133.50;;;13.39;76.67
67980;BME280;54760;47.490;19.030;2023-05-12T01:13:12;100141.75;;;13.39;76.30
67980;BME280;54760;47.490;19.030;2023-05-12T01:15:41;100138.25;;;13.38;76.76
67980;BME280;54760;47.490;19.030;2023-05-12T01:18:10;100138.28;;;13.51;77.10
67980;BME280;54760;47.490;19.030;2023-05-12T01:20:36;100145.84;;;13.47;76.75
67980;BME280;54760;47.490;19.030;2023-05-12T01:23:03;100139.47;;;13.50;76.13
67980;BME280;54760;47.490;19.030;2023-05-12T01:25:31;100144.50;;;13.39;76.66
67980;BME280;54760;47.490;19.030;2023-05-12T01:27:57;100143.16;;;13.31;78.00
67980;BME280;54760;47.490;19.030;2023-05-12T01:30:23;100149.94;;;13.55;76.80
67980;BME280;54760;47.490;19.030;2023-05-12T01:32:50;100144.97;;;13.50;77.36
67980;BME280;54760;47.490;19.030;2023-05-12T01:35:16;100153.75;;;13.45;77.92
67980;BME280;54760;47.490;19.030;2023-05-12T01:37:41;100144.41;;;13.42;77.29
67980;BME280;54760;47.490;19.030;2023-05-12T01:40:07;100145.50;;;13.45;77.18
67980;BME280;54760;47.490;19.030;2023-05-12T01:42:33;100145.78;;;13.22;78.21
67980;BME280;54760;47.490;19.030;2023-05-12T01:44:58;100146.03;;;13.40;76.93
67980;BME280;54760;47.490;19.030;2023-05-12T01:47:23;100148.59;;;13.47;78.25
67980;BME280;54760;47.490;19.030;2023-05-12T01:49:49;100150.81;;;13.52;77.97
67980;BME280;54760;47.490;19.030;2023-05-12T01:52:15;100152.56;;;13.59;77.37
67980;BME280;54760;47.490;19.030;2023-05-12T01:54:40;100161.28;;;13.70;76.86
67980;BME280;54760;47.490;19.030;2023-05-12T01:57:06;100165.50;;;13.87;76.07
67980;BME280;54760;47.490;19.030;2023-05-12T01:59:31;100153.81;;;13.70;76.67
67980;BME280;54760;47.490;19.030;2023-05-12T02:01:56;100160.62;;;13.66;76.93
67980;BME280;54760;47.490;19.030;2023-05-12T02:04:22;100165.56;;;13.58;77.55
67980;BME280;54760;47.490;19.030;2023-05-12T02:06:47;100170.62;;;13.60;77.12
67980;BME280;54760;47.490;19.030;2023-05-12T02:09:12;100169.84;;;13.47;78.37
67980;BME280;54760;47.490;19.030;2023-05-12T02:11:38;100168.25;;;13.33;79.34
67980;BME280;54760;47.490;19.030;2023-05-12T02:14:03;100168.03;;;13.40;79.59
67980;BME280;54760;47.490;19.030;2023-05-12T02:16:29;100161.28;;;13.57;78.78
67980;BME280;54760;47.490;19.030;2023-05-12T02:18:54;100173.34;;;13.47;78.99
67980;BME280;54760;47.490;19.030;2023-05-12T02:21:19;100173.31;;;13.34;78.86
67980;BME280;54760;47.490;19.030;2023-05-12T02:23:45;100176.25;;;13.27;79.23
67980;BME280;54760;47.490;19.030;2023-05-12T02:26:10;100171.31;;;13.35;79.17
67980;BME280;54760;47.490;19.030;2023-05-12T02:28:36;100172.34;;;13.41;78.62
67980;BME280;54760;47.490;19.030;2023-05-12T02:31:01;100170.47;;;13.38;79.09
67980;BME280;54760;47.490;19.030;2023-05-12T02:33:27;100176.41;;;13.36;79.19
67980;BME280;54760;47.490;19.030;2023-05-12T02:35:54;100172.75;;;13.27;79.04
67980;BME280;54760;47.490;19.030;2023-05-12T02:38:19;100173.94;;;13.26;79.41
67980;BME280;54760;47.490;19.030;2023-05-12T02:40:45;100169.31;;;13.23;80.06
67980;BME280;54760;47.490;19.030;2023-05-12T02:43:11;100172.31;;;13.28;79.40
67980;BME280;54760;47.490;19.030;2023-05-12T02:45:36;100164.66;;;13.20;79.99
67980;BME280;54760;47.490;19.030;2023-05-12T02:48:01;100175.50;;;13.27;79.85
67980;BME280;54760;47.490;19.030;2023-05-12T02:50:27;100170.53;;;13.06;80.60
67980;BME280;54760;47.490;19.030;2023-05-12T02:52:52;100172.34;;;13.12;80.50
67980;BME280;54760;47.490;19.030;2023-05-12T02:55:18;100180.50;;;13.16;80.79
67980;BME280;54760;47.490;19.030;2023-05-12T02:57:43;100174.50;;;13.05;80.85
67980;BME280;54760;47.490;19.030;2023-05-12T03:00:09;100179.13;;;13.08;80.85
67980;BME280;54760;47.490;19.030;2023-05-12T03:02:36;100181.44;;;13.09;81.08
67980;BME280;54760;47.490;19.030;2023-05-12T03:05:03;100180.59;;;13.12;80.85
67980;BME280;54760;47.490;19.030;2023-05-12T03:07:29;100188.22;;;13.21;80.66
67980;BME280;54760;47.490;19.030;2023-05-12T03:09:54;100177.06;;;12.95;82.32
67980;BME280;54760;47.490;19.030;2023-05-12T03:12:20;100180.50;;;13.16;81.92
67980;BME280;54760;47.490;19.030;2023-05-12T03:14:45;100178.25;;;13.11;82.29
67980;BME280;54760;47.490;19.030;2023-05-12T03:17:11;100184.62;;;13.08;81.57
67980;BME280;54760;47.490;19.030;2023-05-12T03:19:36;100176.31;;;12.95;83.59
67980;BME280;54760;47.490;19.030;2023-05-12T03:22:02;100176.44;;;13.20;81.93
67980;BME280;54760;47.490;19.030;2023-05-12T03:24:28;100173.94;;;13.10;81.63
67980;BME280;54760;47.490;19.030;2023-05-12T03:26:54;100177.53;;;12.94;82.22
67980;BME280;54760;47.490;19.030;2023-05-12T03:29:20;100177.31;;;13.01;82.84
67980;BME280;54760;47.490;19.030;2023-05-12T03:31:46;100180.28;;;12.94;83.00
67980;BME280;54760;47.490;19.030;2023-05-12T03:34:11;100180.84;;;13.01;82.85
67980;BME280;54760;47.490;19.030;2023-05-12T03:36:37;100184.16;;;13.25;81.68
67980;BME280;54760;47.490;19.030;2023-05-12T03:39:02;100187.94;;;13.31;81.61
67980;BME280;54760;47.490;19.030;2023-05-12T03:41:28;100197.47;;;13.27;81.13
67980;BME280;54760;47.490;19.030;2023-05-12T03:43:53;100187.44;;;13.20;81.79
67980;BME280;54760;47.490;19.030;2023-05-12T03:46:19;100184.62;;;13.08;82.12
67980;BME280;54760;47.490;19.030;2023-05-12T03:48:44;100187.69;;;13.10;82.06
67980;BME280;54760;47.490;19.030;2023-05-12T03:51:10;100195.94;;;13.10;82.39
67980;BME280;54760;47.490;19.030;2023-05-12T03:53:35;100187.53;;;13.17;81.63
67980;BME280;54760;47.490;19.030;2023-05-12T03:56:04;100188.75;;;13.16;81.21
67980;BME280;54760;47.490;19.030;2023-05-12T03:58:30;100189.97;;;12.98;82.30
67980;BME280;54760;47.490;19.030;2023-05-12T04:00:56;100182.81;;;13.01;83.22
67980;BME280;54760;47.490;19.030;2023-05-12T04:03:21;100194.84;;;12.91;83.33
67980;BME280;54760;47.490;19.030;2023-05-12T04:05:47;100194.41;;;13.09;82.80
67980;BME280;54760;47.490;19.030;2023-05-12T04:08:12;100200.41;;;13.20;82.33
67980;BME280;54760;47.490;19.030;2023-05-12T04:10:41;100198.69;;;13.10;82.62
67980;BME280;54760;47.490;19.030;2023-05-12T04:13:07;100201.31;;;13.29;82.25
67980;BME280;54760;47.490;19.030;2023-05-12T04:15:34;100206.28;;;13.34;81.72
67980;BME280;54760;47.490;19.030;2023-05-12T04:18:00;100209.03;;;13.34;81.45
67980;BME280;54760;47.490;19.030;2023-05-12T04:20:26;100209.78;;;13.22;82.10
67980;BME280;54760;47.490;19.030;2023-05-12T04:22:51;100217.09;;;13.13;82.64
67980;BME280;54760;47.490;19.030;2023-05-12T04:25:17;100213.87;;;13.30;81.44
67980;BME280;54760;47.490;19.030;2023-05-12T04:27:42;100213.16;;;13.14;81.74
67980;BME280;54760;47.490;19.030;2023-05-12T04:30:08;100214.94;;;13.04;82.75
67980;BME280;54760;47.490;19.030;2023-05-12T04:32:33;100216.72;;;13.11;82.45
67980;BME280;54760;47.490;19.030;2023-05-12T04:34:59;100217.69;;;13.04;82.70
67980;BME280;54760;47.490;19.030;2023-05-12T04:37:24;100209.53;;;13.17;82.04
67980;BME280;54760;47.490;19.030;2023-05-12T04:39:50;100217.69;;;13.04;82.63
67980;BME280;54760;47.490;19.030;2023-05-12T04:42:15;100214.16;;;13.20;82.28
67980;BME280;54760;47.490;19.030;2023-05-12T04:44:41;100207.59;;;13.30;81.49
67980;BME280;54760;47.490;19.030;2023-05-12T04:47:06;100217.59;;;13.24;81.90
67980;BME280;54760;47.490;19.030;2023-05-12T04:49:31;100213.47;;;13.16;82.39
67980;BME280;54760;47.490;19.030;2023-05-12T04:51:57;100214.31;;;13.29;82.05
67980;BME280;54760;47.490;19.030;2023-05-12T04:54:22;100209.63;;;13.42;81.94
67980;BME280;54760;47.490;19.030;2023-05-12T04:56:48;100213.03;;;13.33;81.85
67980;BME280;54760;47.490;19.030;2023-05-12T04:59:13;100210.03;;;13.28;82.01
67980;BME280;54760;47.490;19.030;2023-05-12T05:01:42;100207.03;;;13.22;82.64
67980;BME280;54760;47.490;19.030;2023-05-12T05:04:07;100212.81;;;13.40;82.16
67980;BME280;54760;47.490;19.030;2023-05-12T05:06:33;100206.94;;;13.26;83.39
67980;BME280;54760;47.490;19.030;2023-05-12T05:08:58;100213.44;;;13.32;82.52
67980;BME280;54760;47.490;19.030;2023-05-12T05:11:24;100218.78;;;13.52;82.62
67980;BME280;54760;47.490;19.030;2023-05-12T05:13:50;100223.00;;;13.56;81.56
67980;BME280;54760;47.490;19.030;2023-05-12T05:16:16;100221.25;;;13.33;81.68
67980;BME280;54760;47.490;19.030;2023-05-12T05:18:41;100213.97;;;13.27;82.09
67980;BME280;54760;47.490;19.030;2023-05-12T05:21:11;100214.31;;;13.29;81.72
67980;BME280;54760;47.490;19.030;2023-05-12T05:23:38;100215.31;;;13.35;82.20
67980;BME280;54760;47.490;19.030;2023-05-12T05:26:03;100216.37;;;13.25;82.13
67980;BME280;54760;47.490;19.030;2023-05-12T05:28:29;100221.31;;;13.17;81.22
67980;BME280;54760;47.490;19.030;2023-05-12T05:30:55;100218.59;;;13.30;82.63
67980;BME280;54760;47.490;19.030;2023-05-12T05:33:20;100223.63;;;13.19;82.26
67980;BME280;54760;47.490;19.030;2023-05-12T05:35:46;100218.31;;;13.12;82.49
67980;BME280;54760;47.490;19.030;2023-05-12T05:38:12;100216.72;;;13.11;82.24
67980;BME280;54760;47.490;19.030;2023-05-12T05:40:37;100226.03;;;13.17;83.71
67980;BME280;54760;47.490;19.030;2023-05-12T05:43:03;100226.59;;;13.24;83.64
67980;BME280;54760;47.490;19.030;2023-05-12T05:45:28;100225.84;;;13.24;83.35
67980;BME280;54760;47.490;19.030;2023-05-12T05:47:54;100228.81;;;13.29;83.50
67980;BME280;54760;47.490;19.030;2023-05-12T05:50:19;100228.38;;;13.31;81.94
67980;BME280;54760;47.490;19.030;2023-05-12T05:52:44;100235.09;;;13.30;82.74
67980;BME280;54760;47.490;19.030;2023-05-12T05:55:10;100241.56;;;13.23;82.80
67980;BME280;54760;47.490;19.030;2023-05-12T05:57:35;100240.44;;;13.21;81.55
67980;BME280;54760;47.490;19.030;2023-05-12T06:00:02;100232.88;;;13.25;82.28
67980;BME280;54760;47.490;19.030;2023-05-12T06:02:29;100245.41;;;13.26;81.84
67980;BME280;54760;47.490;19.030;2023-05-12T06:04:56;100240.59;;;13.30;81.58
67980;BME280;54760;47.490;19.030;2023-05-12T06:07:21;100242.50;;;13.17;81.94
67980;BME280;54760;47.490;19.030;2023-05-12T06:09:47;100239.88;;;13.13;82.59
67980;BME280;54760;47.490;19.030;2023-05-12T06:12:12;100246.28;;;13.23;82.17
67980;BME280;54760;47.490;19.030;2023-05-12T06:14:37;100246.19;;;13.26;81.52
67980;BME280;54760;47.490;19.030;2023-05-12T06:17:03;100241.72;;;13.32;81.84
67980;BME280;54760;47.490;19.030;2023-05-12T06:19:28;100243.34;;;13.30;81.27
67980;BME280;54760;47.490;19.030;2023-05-12T06:21:54;100249.53;;;13.34;82.07
67980;BME280;54760;47.490;19.030;2023-05-12T06:24:19;100251.31;;;13.40;81.54
67980;BME280;54760;47.490;19.030;2023-05-12T06:26:45;100242.34;;;13.53;81.66
67980;BME280;54760;47.490;19.030;2023-05-12T06:29:10;100245.19;;;13.49;81.80
67980;BME280;54760;47.490;19.030;2023-05-12T06:31:35;100244.97;;;13.43;81.10
67980;BME280;54760;47.490;19.030;2023-05-12T06:34:01;100247.47;;;13.38;81.05
67980;BME280;54760;47.490;19.030;2023-05-12T06:36:27;100242.94;;;13.44;81.92
67980;BME280;54760;47.490;19.030;2023-05-12T06:38:54;100245.41;;;13.55;81.29
67980;BME280;54760;47.490;19.030;2023-05-12T06:41:20;100248.41;;;13.60;81.95
67980;BME280;54760;47.490;19.030;2023-05-12T06:43:46;100247.63;;;13.60;81.59
67980;BME280;54760;47.490;19.030;2023-05-12T06:46:11;100244.22;;;13.56;82.20
67980;BME280;54760;47.490;19.030;2023-05-12T06:48:37;100243.13;;;13.53;82.02
67980;BME280;54760;47.490;19.030;2023-05-12T06:51:02;100244.81;;;13.63;81.66
67980;BME280;54760;47.490;19.030;2023-05-12T06:53:28;100244.72;;;13.79;81.32
67980;BME280;54760;47.490;19.030;2023-05-12T06:55:54;100244.63;;;13.83;81.22
67980;BME280;54760;47.490;19.030;2023-05-12T06:58:19;100246.47;;;13.73;80.41
67980;BME280;54760;47.490;19.030;2023-05-12T07:00:46;100240.09;;;13.76;80.76
67980;BME280;54760;47.490;19.030;2023-05-12T07:03:12;100244.31;;;13.94;80.08
67980;BME280;54760;47.490;19.030;2023-05-12T07:05:37;100250.28;;;14.05;80.25
67980;BME280;54760;47.490;19.030;2023-05-12T07:08:04;100250.16;;;14.08;79.27
67980;BME280;54760;47.490;19.030;2023-05-12T07:10:30;100242.16;;;14.14;80.45
67980;BME280;54760;47.490;19.030;2023-05-12T07:12:57;100252.69;;;14.03;79.24
67980;BME280;54760;47.490;19.030;2023-05-12T07:15:22;100239.94;;;14.09;80.79
67980;BME280;54760;47.490;19.030;2023-05-12T07:17:47;100240.63;;;14.25;80.50
67980;BME280;54760;47.490;19.030;2023-05-12T07:20:13;100252.72;;;14.28;80.34
67980;BME280;54760;47.490;19.030;2023-05-12T07:22:38;100238.66;;;14.26;80.90
67980;BME280;54760;47.490;19.030;2023-05-12T07:25:04;100247.00;;;14.10;79.44
67980;BME280;54760;47.490;19.030;2023-05-12T07:27:30;100246.00;;;14.16;79.28
67980;BME280;54760;47.490;19.030;2023-05-12T07:29:56;100247.44;;;14.21;79.46
67980;BME280;54760;47.490;19.030;2023-05-12T07:32:21;100243.25;;;14.16;79.24
67980;BME280;54760;47.490;19.030;2023-05-12T07:34:47;100250.47;;;14.39;78.55
67980;BME280;54760;47.490;19.030;2023-05-12T07:37:12;100242.97;;;14.52;79.47
67980;BME280;54760;47.490;19.030;2023-05-12T07:39:37;100236.91;;;14.57;77.69
67980;BME280;54760;47.490;19.030;2023-05-12T07:42:04;100241.72;;;14.28;77.47
67980;BME280;54760;47.490;19.030;2023-05-12T07:44:29;100244.72;;;14.59;77.98
67980;BME280;54760;47.490;19.030;2023-05-12T07:46:57;100238.22;;;14.65;77.73
67980;BME280;54760;47.490;19.030;2023-05-12T07:49:22;100246.59;;;14.49;78.49
67980;BME280;54760;47.490;19.030;2023-05-12T07:51:47;100251.53;;;14.67;78.70
67980;BME280;54760;47.490;19.030;2023-05-12T07:54:13;100237.34;;;14.68;78.75
67980;BME280;54760;47.490;19.030;2023-05-12T07:56:38;100247.81;;;14.61;77.83
67980;BME280;54760;47.490;19.030;2023-05-12T07:59:04;100246.16;;;14.63;77.23
67980;BME280;54760;47.490;19.030;2023-05-12T08:01:30;100246.94;;;14.64;77.42
67980;BME280;54760;47.490;19.030;2023-05-12T08:03:55;100251.09;;;14.68;76.61
67980;BME280;54760;47.490;19.030;2023-05-12T08:06:21;100250.87;;;14.63;77.25
67980;BME280;54760;47.490;19.030;2023-05-12T08:08:46;100241.94;;;14.71;77.12
67980;BME280;54760;47.490;19.030;2023-05-12T08:11:12;100253.31;;;14.73;76.56
67980;BME280;54760;47.490;19.030;2023-05-12T08:13:37;100247.37;;;14.75;76.04
67980;BME280;54760;47.490;19.030;2023-05-12T08:16:03;100259.91;;;14.76;75.54
67980;BME280;54760;47.490;19.030;2023-05-12T08:18:28;100255.84;;;14.81;74.92
67980;BME280;54760;47.490;19.030;2023-05-12T08:20:54;100257.69;;;14.84;75.96
67980;BME280;54760;47.490;19.030;2023-05-12T08:23:19;100256.50;;;14.85;75.11
67980;BME280;54760;47.490;19.030;2023-05-12T08:25:45;100253.06;;;14.93;74.42
67980;BME280;54760;47.490;19.030;2023-05-12T08:28:13;100258.66;;;15.02;74.13
67980;BME280;54760;47.490;19.030;2023-05-12T08:30:38;100258.22;;;14.91;74.31
67980;BME280;54760;47.490;19.030;2023-05-12T08:33:04;100260.56;;;14.93;72.21
67980;BME280;54760;47.490;19.030;2023-05-12T08:35:29;100257.69;;;14.84;73.15
67980;BME280;54760;47.490;19.030;2023-05-12T08:37:56;100260.22;;;14.91;72.87
67980;BME280;54760;47.490;19.030;2023-05-12T08:40:24;100259.31;;;15.06;72.80
67980;BME280;54760;47.490;19.030;2023-05-12T08:43:23;100255.13;;;15.02;73.36
67980;BME280;54760;47.490;19.030;2023-05-12T08:45:50;100268.94;;;14.89;71.45
67980;BME280;54760;47.490;19.030;2023-05-12T08:48:17;100263.44;;;14.89;72.57
67980;BME280;54760;47.490;19.030;2023-05-12T08:50:44;100262.09;;;14.94;71.42
67980;BME280;54760;47.490;19.030;2023-05-12T08:53:12;100273.69;;;14.89;72.94
67980;BME280;54760;47.490;19.030;2023-05-12T08:55:41;100268.25;;;14.98;71.83
67980;BME280;54760;47.490;19.030;2023-05-12T08:58:07;100269.78;;;15.11;71.43
67980;BME280;54760;47.490;19.030;2023-05-12T09:00:34;100271.31;;;15.12;72.34
67980;BME280;54760;47.490;19.030;2023-05-12T09:03:03;100269.28;;;14.79;73.11
67980;BME280;54760;47.490;19.030;2023-05-12T09:05:30;100268.53;;;14.65;73.99
67980;BME280;54760;47.490;19.030;2023-05-12T09:07:57;100269.84;;;14.48;75.05
67980;BME280;54760;47.490;19.030;2023-05-12T09:10:23;100273.12;;;14.30;74.87
67980;BME280;54760;47.490;19.030;2023-05-12T09:12:51;100274.75;;;14.28;75.65
67980;BME280;54760;47.490;19.030;2023-05-12T09:15:25;100280.56;;;14.17;75.70
67980;BME280;54760;47.490;19.030;2023-05-12T09:17:51;100279.91;;;14.01;76.08
67980;BME280;54760;47.490;19.030;2023-05-12T09:20:17;100286.81;;;13.93;76.79
67980;BME280;54760;47.490;19.030;2023-05-12T09:22:43;100283.84;;;13.87;77.88
67980;BME280;54760;47.490;19.030;2023-05-12T09:25:18;100283.84;;;13.87;77.91
67980;BME280;54760;47.490;19.030;2023-05-12T09:27:46;100294.31;;;13.92;78.85
67980;BME280;54760;47.490;19.030;2023-05-12T09:30:12;100300.28;;;13.74;79.83
67980;BME280;54760;47.490;19.030;2023-05-12T09:32:38;100296.47;;;13.56;81.41
67980;BME280;54760;47.490;19.030;2023-05-12T09:35:04;100311.44;;;13.55;82.39
67980;BME280;54760;47.490;19.030;2023-05-12T09:37:31;100311.63;;;13.48;82.58
67980;BME280;54760;47.490;19.030;2023-05-12T09:39:58;100315.69;;;13.27;81.82
67980;BME280;54760;47.490;19.030;2023-05-12T09:42:28;100318.09;;;13.25;82.95
67980;BME280;54760;47.490;19.030;2023-05-12T09:44:58;100320.16;;;13.37;83.44
67980;BME280;54760;47.490;19.030;2023-05-12T09:47:26;100330.78;;;13.35;83.07
67980;BME280;54760;47.490;19.030;2023-05-12T09:49:53;100320.47;;;13.07;83.14
67980;BME280;54760;47.490;19.030;2023-05-12T09:52:20;100322.81;;;13.08;84.39
67980;BME280;54760;47.490;19.030;2023-05-12T09:54:46;100323.91;;;13.11;84.79
67980;BME280;54760;47.490;19.030;2023-05-12T09:57:14;100334.25;;;13.23;84.95
67980;BME280;54760;47.490;19.030;2023-05-12T09:59:42;100328.75;;;13.23;84.74
67980;BME280;54760;47.490;19.030;2023-05-12T10:02:09;100332.53;;;13.29;85.19
67980;BME280;54760;47.490;19.030;2023-05-12T10:04:43;100325.28;;;13.35;85.29
67980;BME280;54760;47.490;19.030;2023-05-12T10:07:12;100333.72;;;13.28;85.38
67980;BME280;54760;47.490;19.030;2023-05-12T10:09:39;100329.78;;;13.13;85.62
67980;BME280;54760;47.490;19.030;2023-05-12T10:12:07;100330.38;;;13.20;85.82
67980;BME280;54760;47.490;19.030;2023-05-12T10:14:33;100326.69;;;13.27;87.03
67980;BME280;54760;47.490;19.030;2023-05-12T10:17:00;100331.81;;;13.41;85.80
67980;BME280;54760;47.490;19.030;2023-05-12T10:19:28;100331.56;;;13.52;85.71
67980;BME280;54760;47.490;19.030;2023-05-12T10:21:55;100339.19;;;13.60;85.07
67980;BME280;54760;47.490;19.030;2023-05-12T10:24:24;100330.75;;;13.67;85.12
67980;BME280;54760;47.490;19.030;2023-05-12T10:26:53;100332.91;;;13.60;84.97
67980;BME280;54760;47.490;19.030;2023-05-12T10:29:21;100324.72;;;13.72;84.09
67980;BME280;54760;47.490;19.030;2023-05-12T10:31:54;100321.47;;;13.61;84.96
67980;BME280;54760;47.490;19.030;2023-05-12T10:34:20;100321.72;;;13.67;84.25
67980;BME280;54760;47.490;19.030;2023-05-12T10:36:47;100321.19;;;13.72;83.80
67980;BME280;54760;47.490;19.030;2023-05-12T10:39:16;100323.81;;;13.63;83.77
67980;BME280;54760;47.490;19.030;2023-05-12T10:41:41;100323.16;;;13.71;83.33
67980;BME280;54760;47.490;19.030;2023-05-12T10:44:07;100322.81;;;13.69;83.36
67980;BME280;54760;47.490;19.030;2023-05-12T10:46:35;100332.06;;;13.47;82.29
67980;BME280;54760;47.490;19.030;2023-05-12T10:49:07;100325.50;;;13.73;83.19
67980;BME280;54760;47.490;19.030;2023-05-12T10:54:09;100324.56;;;13.63;83.84
67980;BME280;54760;47.490;19.030;2023-05-12T11:01:34;100340.59;;;14.10;81.95
67980;BME280;54760;47.490;19.030;2023-05-12T11:04:11;100329.00;;;14.02;81.12
67980;BME280;54760;47.490;19.030;2023-05-12T11:06:37;100326.94;;;14.19;80.28
67980;BME280;54760;47.490;19.030;2023-05-12T11:09:03;100336.81;;;14.04;81.04
67980;BME280;54760;47.490;19.030;2023-05-12T11:11:30;100339.25;;;14.02;81.41
67980;BME280;54760;47.490;19.030;2023-05-12T11:13:56;100340.41;;;14.17;80.94
67980;BME280;54760;47.490;19.030;2023-05-12T11:16:22;100336.00;;;13.91;81.03
67980;BME280;54760;47.490;19.030;2023-05-12T11:19:05;100334.78;;;14.20;80.19
67980;BME280;54760;47.490;19.030;2023-05-12T11:21:31;100332.50;;;14.03;80.36
67980;BME280;54760;47.490;19.030;2023-05-12T11:23:58;100342.13;;;14.11;80.74
67980;BME280;54760;47.490;19.030;2023-05-12T11:26:24;100337.84;;;14.22;80.59
67980;BME280;54760;47.490;19.030;2023-05-12T11:28:50;100332.97;;;14.01;79.99
67980;BME280;54760;47.490;19.030;2023-05-12T11:31:17;100339.63;;;13.87;80.68
67980;BME280;54760;47.490;19.030;2023-05-12T11:33:44;100341.56;;;13.74;81.49
67980;BME280;54760;47.490;19.030;2023-05-12T11:36:09;100335.87;;;13.81;82.31
67980;BME280;54760;47.490;19.030;2023-05-12T11:38:35;100340.31;;;13.92;81.72
67980;BME280;54760;47.490;19.030;2023-05-12T11:41:00;100333.97;;;13.78;82.18
67980;BME280;54760;47.490;19.030;2023-05-12T11:43:27;100337.03;;;13.97;81.61
67980;BME280;54760;47.490;19.030;2023-05-12T11:45:53;100325.63;;;14.11;80.68
67980;BME280;54760;47.490;19.030;2023-05-12T11:48:19;100336.63;;;14.11;80.52
67980;BME280;54760;47.490;19.030;2023-05-12T11:50:47;100333.00;;;14.14;79.95
67980;BME280;54760;47.490;19.030;2023-05-12T11:53:16;100327.34;;;14.05;81.62
67980;BME280;54760;47.490;19.030;2023-05-12T11:55:55;100339.03;;;14.09;80.89
67980;BME280;54760;47.490;19.030;2023-05-12T11:58:22;100331.91;;;13.82;81.46
67980;BME280;54760;47.490;19.030;2023-05-12T12:00:51;100328.81;;;13.80;81.31
67980;BME280;54760;47.490;19.030;2023-05-12T12:03:16;100334.03;;;13.91;82.36
67980;BME280;54760;47.490;19.030;2023-05-12T12:05:44;100335.34;;;13.86;82.71
67980;BME280;54760;47.490;19.030;2023-05-12T12:08:11;100340.62;;;13.94;82.52
67980;BME280;54760;47.490;19.030;2023-05-12T12:10:45;100331.03;;;13.85;82.37
67980;BME280;54760;47.490;19.030;2023-05-12T12:13:12;100333.41;;;13.71;82.41
67980;BME280;54760;47.490;19.030;2023-05-12T12:15:37;100335.53;;;13.79;82.01
67980;BME280;54760;47.490;19.030;2023-05-12T12:18:03;100346.06;;;13.97;81.67
67980;BME280;54760;47.490;19.030;2023-05-12T12:20:28;100338.94;;;13.83;82.00
67980;BME280;54760;47.490;19.030;2023-05-12T12:22:54;100347.72;;;13.78;82.30
67980;BME280;54760;47.490;19.030;2023-05-12T12:25:20;100341.69;;;13.83;82.75
67980;BME280;54760;47.490;19.030;2023-05-12T12:27:46;100335.59;;;13.92;82.77
67980;BME280;54760;47.490;19.030;2023-05-12T12:30:13;100343.97;;;13.72;83.12
67980;BME280;54760;47.490;19.030;2023-05-12T12:32:39;100354.63;;;13.70;83.54
67980;BME280;54760;47.490;19.030;2023-05-12T12:35:05;100345.72;;;13.66;81.94
67980;BME280;54760;47.490;19.030;2023-05-12T12:37:31;100355.53;;;13.51;81.30
67980;BME280;54760;47.490;19.030;2023-05-12T12:39:57;100349.84;;;13.58;82.97
67980;BME280;54760;47.490;19.030;2023-05-12T12:42:23;100358.09;;;13.58;83.39
67980;BME280;54760;47.490;19.030;2023-05-12T12:44:48;100349.53;;;13.40;82.86